Time;durP1;ratioP1;P1;durP2;ratioP2;P2;SDS_P1;SDS_P2;PMS_P1;PMS_P2;Temp;Humidity;BMP_temperature;BMP_pressure;BME280_temperature;BME280_humidity;BME280_pressure;Samples;Min_cycle;Max_cycle;Signal;HPM_P1;HPM_P2
2023/08/14 00:00:10;;;;;;;2.37;2.17;;;;;;;18.51;61.11;93936.94;514021;28;879;-46
2023/08/14 00:00:26;;;;;;;2.20;2.00;;;;;;;18.52;60.85;93943.25;513903;28;934;-46
2023/08/14 00:00:41;;;;;;;1.90;1.70;;;;;;;18.51;61.03;93939.00;514071;28;789;-45
2023/08/14 00:00:56;;;;;;;2.30;2.10;;;;;;;18.50;61.03;93937.50;513464;28;1609;-45
2023/08/14 00:01:12;;;;;;;2.40;2.13;;;;;;;18.49;60.93;93947.22;513495;28;857;-45
2023/08/14 00:01:27;;;;;;;2.72;2.00;;;;;;;18.49;61.05;93941.66;512344;28;1050;-44
2023/08/14 00:01:42;;;;;;;3.03;2.07;;;;;;;18.48;61.13;93942.94;514025;28;951;-45
2023/08/14 00:01:58;;;;;;;2.30;2.10;;;;;;;18.47;61.27;93939.44;513934;28;904;-45
2023/08/14 00:02:13;;;;;;;2.55;2.35;;;;;;;18.47;61.17;93941.50;514057;28;956;-46
2023/08/14 00:02:28;;;;;;;2.43;2.23;;;;;;;18.46;61.36;93940.75;513889;28;1296;-46
2023/08/14 00:02:44;;;;;;;2.17;1.97;;;;;;;18.46;61.15;93937.97;514109;28;815;-45
2023/08/14 00:02:59;;;;;;;2.20;2.00;;;;;;;18.47;61.30;93933.09;514031;28;817;-45
2023/08/14 00:03:15;;;;;;;2.40;1.98;;;;;;;18.33;61.16;93918.06;514033;28;845;-45
2023/08/14 00:03:30;;;;;;;2.90;1.93;;;;;;;18.46;61.32;93937.22;514096;28;764;-45
2023/08/14 00:03:46;;;;;;;2.88;2.08;;;;;;;18.45;61.44;93930.88;512574;28;1755;-45
2023/08/14 00:04:01;;;;;;;2.50;2.30;;;;;;;18.45;61.65;93930.16;513712;28;1051;-46
2023/08/14 00:04:17;;;;;;;2.42;2.22;;;;;;;18.42;61.61;93937.63;514011;28;884;-46
2023/08/14 00:04:32;;;;;;;2.07;1.80;;;;;;;18.43;61.52;93936.31;514066;28;828;-46
2023/08/14 00:04:50;;;;;;;2.10;1.90;;;;;;;18.42;61.76;93939.69;512522;28;1093;-46
2023/08/14 00:05:06;;;;;;;1.92;1.83;;;;;;;18.41;61.58;93935.44;513994;28;893;-45
2023/08/14 00:05:21;;;;;;;1.83;1.73;;;;;;;18.41;61.59;93941.03;513977;28;775;-46
2023/08/14 00:05:37;;;;;;;2.10;2.00;;;;;;;18.39;61.50;93940.84;514021;28;1131;-45
2023/08/14 00:05:52;;;;;;;2.60;2.23;;;;;;;18.39;61.49;93940.84;513879;28;1153;-45
2023/08/14 00:06:08;;;;;;;2.75;2.35;;;;;;;18.39;61.70;93936.00;513904;28;1128;-45
2023/08/14 00:06:23;;;;;;;2.20;2.00;;;;;;;18.38;61.68;93937.34;513817;28;1088;-45
2023/08/14 00:06:38;;;;;;;1.87;1.77;;;;;;;18.38;61.80;93939.41;514029;28;820;-46
2023/08/14 00:06:54;;;;;;;2.30;2.13;;;;;;;18.37;61.76;93944.25;514065;28;787;-46
2023/08/14 00:07:09;;;;;;;2.63;2.42;;;;;;;18.37;61.71;93949.84;513859;28;1289;-45
2023/08/14 00:07:24;;;;;;;2.50;2.30;;;;;;;18.36;61.84;93936.47;514047;28;821;-45
2023/08/14 00:07:40;;;;;;;2.00;1.90;;;;;;;18.35;61.93;93934.97;514026;28;1119;-46
2023/08/14 00:07:55;;;;;;;1.80;1.70;;;;;;;18.33;62.05;93943.97;513514;28;1707;-45
2023/08/14 00:08:11;;;;;;;1.90;1.70;;;;;;;18.32;61.74;93942.47;512850;28;983;-44
2023/08/14 00:08:26;;;;;;;2.20;2.00;;;;;;;18.31;61.97;93943.81;513034;28;907;-45
2023/08/14 00:08:41;;;;;;;2.25;2.05;;;;;;;18.31;61.91;93938.22;513995;28;813;-45
2023/08/14 00:08:57;;;;;;;2.20;2.00;;;;;;;18.32;61.89;93938.97;513938;28;869;-44
2023/08/14 00:09:12;;;;;;;3.77;2.10;;;;;;;18.31;61.93;93940.28;513936;28;1020;-46
2023/08/14 00:09:27;;;;;;;3.40;2.10;;;;;;;18.31;61.84;93943.81;513980;28;907;-44
2023/08/14 00:09:43;;;;;;;2.17;1.97;;;;;;;18.30;61.84;93936.75;514093;28;858;-45
2023/08/14 00:09:58;;;;;;;2.17;2.00;;;;;;;18.29;62.05;93940.88;513967;28;944;-44
2023/08/14 00:10:14;;;;;;;2.00;1.90;;;;;;;18.29;62.00;93940.88;514009;28;891;-44
2023/08/14 00:10:29;;;;;;;2.13;2.03;;;;;;;18.29;61.91;93942.94;514063;28;789;-45
2023/08/14 00:10:45;;;;;;;2.60;2.40;;;;;;;18.28;62.16;93942.19;513936;28;1198;-44
2023/08/14 00:11:00;;;;;;;3.87;2.50;;;;;;;18.28;62.27;93944.97;513410;28;1616;-45
2023/08/14 00:11:15;;;;;;;3.08;2.10;;;;;;;18.28;62.33;93938.69;512931;28;864;-46
2023/08/14 00:11:31;;;;;;;2.10;1.90;;;;;;;18.27;62.36;93945.56;513949;28;1910;-45
2023/08/14 00:11:46;;;;;;;2.20;2.00;;;;;;;18.21;62.24;93937.50;513990;28;880;-46
2023/08/14 00:12:02;;;;;;;2.30;2.00;;;;;;;18.27;62.25;93948.38;514010;28;788;-46
2023/08/14 00:12:17;;;;;;;3.17;2.17;;;;;;;18.27;62.16;93946.31;514016;28;1162;-45
2023/08/14 00:12:32;;;;;;;2.63;2.00;;;;;;;18.26;62.27;93944.84;514200;28;786;-45
2023/08/14 00:12:48;;;;;;;2.90;1.80;;;;;;;18.25;62.25;93937.78;514043;28;1013;-46
2023/08/14 00:13:03;;;;;;;3.10;2.00;;;;;;;18.24;62.30;93944.69;513996;28;786;-45
2023/08/14 00:13:20;;;;;;;2.22;2.03;;;;;;;18.24;62.36;93939.09;514033;28;840;-46
2023/08/14 00:13:49;;;;;;;2.40;2.00;;;;;;;18.15;62.45;93931.44;513522;28;1854;-45
2023/08/14 00:14:05;;;;;;;3.03;2.33;;;;;;;18.22;62.56;93943.81;513676;28;1031;-46
2023/08/14 00:14:20;;;;;;;2.50;2.30;;;;;;;18.21;62.68;93942.34;514083;28;844;-45
2023/08/14 00:14:35;;;;;;;2.23;2.03;;;;;;;18.18;62.75;93941.44;514079;28;785;-45
2023/08/14 00:14:51;;;;;;;2.00;1.80;;;;;;;18.21;62.63;93940.28;512307;28;865;-46
2023/08/14 00:15:07;;;;;;;2.00;1.80;;;;;;;18.20;62.75;93941.59;514021;28;1091;-46
2023/08/14 00:15:23;;;;;;;2.17;1.98;;;;;;;18.19;62.79;93948.53;514023;28;873;-45
2023/08/14 00:15:38;;;;;;;2.25;2.05;;;;;;;18.19;62.75;93942.94;514051;28;866;-45
2023/08/14 00:15:54;;;;;;;2.53;2.13;;;;;;;18.17;62.69;93951.16;514006;28;967;-45
2023/08/14 00:16:09;;;;;;;2.50;2.05;;;;;;;18.17;62.87;93951.88;514077;28;832;-46
2023/08/14 00:16:25;;;;;;;2.10;1.90;;;;;;;18.04;62.79;93932.75;514010;28;935;-45
2023/08/14 00:16:40;;;;;;;2.08;1.90;;;;;;;18.16;62.74;93944.09;514047;28;1229;-45
2023/08/14 00:16:56;;;;;;;2.20;2.00;;;;;;;18.15;62.66;93943.34;513980;28;1477;-45
2023/08/14 00:17:11;;;;;;;2.20;2.00;;;;;;;18.16;62.85;93950.44;514058;28;883;-45
2023/08/14 00:17:26;;;;;;;2.28;2.08;;;;;;;18.17;62.71;93951.16;513988;28;1038;-46
2023/08/14 00:17:42;;;;;;;2.33;2.13;;;;;;;18.15;62.56;93946.16;514018;28;924;-46
2023/08/14 00:17:57;;;;;;;2.20;2.10;;;;;;;18.16;62.75;93947.63;514010;28;833;-46
2023/08/14 00:18:12;;;;;;;2.33;2.15;;;;;;;18.15;62.83;93948.22;513195;28;1735;-47
2023/08/14 00:18:28;;;;;;;2.43;2.23;;;;;;;18.14;62.84;93946.75;514020;28;831;-46
2023/08/14 00:18:43;;;;;;;2.83;2.20;;;;;;;18.10;62.82;93944.38;512206;28;884;-45
2023/08/14 00:18:59;;;;;;;4.07;2.30;;;;;;;18.11;62.86;93942.31;513379;28;836;-46
2023/08/14 00:19:14;;;;;;;3.43;2.27;;;;;;;18.11;62.74;93943.06;514053;28;793;-46
2023/08/14 00:19:29;;;;;;;2.27;2.07;;;;;;;18.10;62.87;93947.16;513972;28;1099;-46
2023/08/14 00:19:45;;;;;;;2.53;2.10;;;;;;;18.08;63.04;93944.22;513963;28;997;-46
2023/08/14 00:20:01;;;;;;;2.50;2.20;;;;;;;18.08;62.93;93944.22;513997;28;892;-45
2023/08/14 00:20:16;;;;;;;2.38;2.17;;;;;;;18.05;62.91;93939.81;513980;28;1184;-47
2023/08/14 00:20:32;;;;;;;2.40;2.20;;;;;;;18.06;63.13;93944.06;514060;28;822;-46
2023/08/14 00:20:47;;;;;;;2.30;2.10;;;;;;;18.05;63.25;93939.81;513359;28;1775;-46
2023/08/14 00:21:02;;;;;;;1.87;1.77;;;;;;;18.05;63.25;93950.25;514017;28;837;-45
2023/08/14 00:21:18;;;;;;;1.85;1.75;;;;;;;18.04;63.19;93946.00;513872;28;1143;-46
2023/08/14 00:21:33;;;;;;;2.10;1.90;;;;;;;18.02;62.93;93943.78;514072;28;844;-45
2023/08/14 00:21:49;;;;;;;2.22;2.03;;;;;;;18.02;63.12;93951.41;514025;28;828;-46
2023/08/14 00:22:04;;;;;;;2.20;2.00;;;;;;;18.00;63.09;93946.44;512106;28;843;-46
2023/08/14 00:22:20;;;;;;;2.17;1.97;;;;;;;17.99;63.34;93944.97;511990;28;1058;-45
2023/08/14 00:22:35;;;;;;;2.10;1.90;;;;;;;17.99;63.15;93949.81;512005;28;837;-47
2023/08/14 00:22:50;;;;;;;2.37;1.83;;;;;;;17.99;63.31;93941.44;513673;28;1100;-45
2023/08/14 00:23:06;;;;;;;2.13;1.77;;;;;;;17.97;63.21;93942.03;514027;28;958;-45
2023/08/14 00:23:21;;;;;;;2.30;2.10;;;;;;;17.98;63.26;93951.13;513995;28;800;-46
2023/08/14 00:23:36;;;;;;;2.50;2.30;;;;;;;17.97;63.33;93947.63;512494;28;1668;-45
2023/08/14 00:23:52;;;;;;;2.20;2.00;;;;;;;17.79;63.17;93921.09;512443;28;793;-45
2023/08/14 00:24:07;;;;;;;2.17;1.98;;;;;;;17.96;63.37;93940.53;514073;28;769;-45
2023/08/14 00:24:23;;;;;;;2.50;1.97;;;;;;;17.96;63.40;93942.59;512125;28;1066;-46
2023/08/14 00:24:38;;;;;;;2.53;2.10;;;;;;;17.95;63.26;93944.66;513632;28;993;-46
2023/08/14 00:24:53;;;;;;;2.45;2.10;;;;;;;17.95;63.29;93939.06;514027;28;882;-47
2023/08/14 00:25:10;;;;;;;2.30;2.00;;;;;;;17.94;63.40;93936.84;514034;28;855;-45
2023/08/14 00:25:25;;;;;;;2.13;1.92;;;;;;;17.94;63.63;93948.03;513914;28;915;-45
2023/08/14 00:25:40;;;;;;;2.22;2.10;;;;;;;17.93;63.47;93944.50;513876;28;941;-47
2023/08/14 00:25:56;;;;;;;2.47;2.20;;;;;;;17.92;63.53;93945.84;514052;28;939;-45
2023/08/14 00:26:14;;;;;;;2.30;2.03;;;;;;;17.84;63.54;93925.69;513334;28;1739;-46
2023/08/14 00:26:30;;;;;;;2.33;1.88;;;;;;;17.92;63.10;93945.09;513500;28;1744;-46
2023/08/14 00:26:45;;;;;;;2.80;2.07;;;;;;;17.90;63.12;93940.09;512639;28;797;-45
2023/08/14 00:27:00;;;;;;;2.43;2.17;;;;;;;17.89;63.12;93949.03;513566;28;816;-46
2023/08/14 00:27:16;;;;;;;2.58;2.05;;;;;;;17.89;63.30;93946.25;513905;28;921;-46
2023/08/14 00:27:31;;;;;;;2.20;2.00;;;;;;;17.87;63.19;93941.25;514082;28;775;-46
2023/08/14 00:27:46;;;;;;;2.30;2.10;;;;;;;17.86;63.22;93939.06;514065;28;797;-46
2023/08/14 00:28:02;;;;;;;3.38;2.13;;;;;;;17.85;63.34;93945.94;513932;28;899;-47
2023/08/14 00:28:17;;;;;;;2.97;2.20;;;;;;;17.85;63.10;93946.69;514024;28;763;-46
2023/08/14 00:28:33;;;;;;;2.50;2.30;;;;;;;17.85;63.12;93943.16;514058;28;864;-45
2023/08/14 00:28:48;;;;;;;2.50;2.30;;;;;;;17.84;63.00;93945.22;513376;28;1546;-46
2023/08/14 00:29:04;;;;;;;2.23;2.03;;;;;;;17.84;62.89;93939.66;513872;28;806;-46
2023/08/14 00:29:19;;;;;;;2.20;2.00;;;;;;;17.84;62.89;93942.44;513268;28;861;-46
2023/08/14 00:29:34;;;;;;;2.10;1.90;;;;;;;17.83;62.98;93940.22;511990;28;1015;-45
2023/08/14 00:29:50;;;;;;;2.20;1.80;;;;;;;17.77;63.01;93931.38;512416;28;823;-46
2023/08/14 00:30:06;;;;;;;2.13;1.90;;;;;;;17.83;63.10;93940.22;513966;28;926;-46
2023/08/14 00:30:21;;;;;;;2.08;1.98;;;;;;;17.82;63.08;93950.66;514027;28;805;-46
2023/08/14 00:30:37;;;;;;;4.40;2.20;;;;;;;17.81;63.05;93942.84;513995;28;785;-46
2023/08/14 00:30:52;;;;;;;4.70;2.20;;;;;;;17.79;63.02;93945.50;513957;28;844;-46
2023/08/14 00:31:07;;;;;;;3.60;2.27;;;;;;;17.77;62.86;93940.50;514011;28;805;-45
2023/08/14 00:31:23;;;;;;;3.23;2.20;;;;;;;17.77;62.99;93940.50;514000;28;1661;-46
2023/08/14 00:31:38;;;;;;;2.88;2.22;;;;;;;17.77;63.01;93942.56;513794;28;1918;-46
2023/08/14 00:31:54;;;;;;;3.60;2.43;;;;;;;17.75;63.11;93939.63;514030;28;878;-45
2023/08/14 00:32:09;;;;;;;2.60;2.20;;;;;;;17.77;63.28;93943.31;514043;28;789;-46
2023/08/14 00:32:24;;;;;;;2.05;1.88;;;;;;;17.77;63.12;93946.09;513971;28;1347;-46
2023/08/14 00:32:40;;;;;;;1.80;1.70;;;;;;;17.76;63.55;93941.81;513971;28;864;-46
2023/08/14 00:32:55;;;;;;;1.87;1.77;;;;;;;17.76;63.39;93944.59;513921;28;983;-46
2023/08/14 00:33:10;;;;;;;2.03;1.90;;;;;;;17.73;63.49;93942.25;512960;28;1704;-45
2023/08/14 00:33:26;;;;;;;2.50;2.17;;;;;;;17.74;63.67;93944.47;513901;28;911;-46
2023/08/14 00:33:41;;;;;;;2.50;2.10;;;;;;;17.74;63.55;93940.91;512398;28;930;-46
2023/08/14 00:33:56;;;;;;;2.05;1.92;;;;;;;17.74;63.62;93940.91;512979;28;782;-46
2023/08/14 00:34:12;;;;;;;2.27;2.07;;;;;;;17.73;63.73;93936.66;514015;28;947;-45
2023/08/14 00:34:27;;;;;;;2.20;2.00;;;;;;;17.72;63.76;93935.19;513947;28;974;-47
2023/08/14 00:34:43;;;;;;;2.20;2.00;;;;;;;17.72;63.80;93944.31;513952;28;1175;-46
2023/08/14 00:34:58;;;;;;;2.27;2.00;;;;;;;17.73;63.71;93945.78;513902;28;1049;-46
2023/08/14 00:35:13;;;;;;;3.30;2.00;;;;;;;17.71;63.71;93940.06;514023;28;792;-46
2023/08/14 00:35:29;;;;;;;2.85;1.83;;;;;;;17.71;63.49;93942.84;513870;28;1044;-45
2023/08/14 00:35:44;;;;;;;1.80;1.70;;;;;;;17.68;63.40;93941.22;513266;28;1759;-45
2023/08/14 00:36:00;;;;;;;2.10;1.98;;;;;;;17.70;63.50;93941.38;513355;28;813;-45
2023/08/14 00:36:15;;;;;;;2.27;2.03;;;;;;;17.69;63.38;93939.91;513635;28;1087;-45
2023/08/14 00:36:30;;;;;;;2.40;1.90;;;;;;;17.69;63.60;93941.97;513766;28;869;-45
2023/08/14 00:36:46;;;;;;;2.25;2.05;;;;;;;17.70;63.66;93944.16;513195;28;1136;-45
2023/08/14 00:37:01;;;;;;;2.70;2.50;;;;;;;17.70;63.81;93943.41;513526;28;797;-46
2023/08/14 00:37:16;;;;;;;2.87;2.43;;;;;;;17.68;63.93;93948.84;513996;28;824;-46
2023/08/14 00:37:48;;;;;;;2.63;2.13;;;;;;;17.68;63.98;93940.47;514020;28;924;-47
2023/08/14 00:38:03;;;;;;;2.10;1.90;;;;;;;17.68;63.93;93940.47;513919;28;838;-46
2023/08/14 00:38:19;;;;;;;2.63;1.90;;;;;;;17.68;63.70;93946.06;513795;28;1775;-45
2023/08/14 00:38:34;;;;;;;2.70;1.88;;;;;;;17.64;63.67;93940.16;513846;28;1009;-46
2023/08/14 00:38:50;;;;;;;1.90;1.80;;;;;;;17.66;63.65;93934.75;512041;28;849;-46
2023/08/14 00:39:05;;;;;;;1.90;1.75;;;;;;;17.66;63.67;93949.44;513758;28;852;-46
2023/08/14 00:39:21;;;;;;;1.90;1.77;;;;;;;17.67;63.54;93953.69;513885;28;1099;-47
2023/08/14 00:39:36;;;;;;;1.90;1.80;;;;;;;17.66;63.48;93941.06;513925;28;823;-45
2023/08/14 00:39:51;;;;;;;2.03;1.93;;;;;;;17.66;63.59;93943.13;514050;28;789;-47
2023/08/14 00:40:08;;;;;;;2.10;1.90;;;;;;;17.66;63.65;93946.66;512046;28;770;-46
2023/08/14 00:40:24;;;;;;;1.98;1.77;;;;;;;17.65;63.67;93947.97;513392;28;2492;-46
2023/08/14 00:40:39;;;;;;;2.00;1.80;;;;;;;17.65;63.71;93947.97;513825;28;1222;-47
2023/08/14 00:40:55;;;;;;;2.10;1.90;;;;;;;17.58;63.41;93932.09;513934;28;865;-47
2023/08/14 00:41:10;;;;;;;2.20;2.00;;;;;;;17.62;63.62;93943.56;514027;28;809;-46
2023/08/14 00:41:25;;;;;;;2.20;2.00;;;;;;;17.61;63.50;93942.06;513887;28;856;-46
2023/08/14 00:41:41;;;;;;;2.40;2.00;;;;;;;17.61;63.30;93944.84;513977;28;999;-47
2023/08/14 00:41:56;;;;;;;2.70;2.13;;;;;;;17.60;63.45;93942.66;513943;28;942;-46
2023/08/14 00:42:11;;;;;;;2.50;2.00;;;;;;;17.59;63.30;93939.13;513967;28;1112;-46
2023/08/14 00:42:27;;;;;;;2.17;1.98;;;;;;;17.56;63.58;93940.31;514056;28;762;-46
2023/08/14 00:42:45;;;;;;;1.93;1.77;;;;;;;17.58;63.59;93945.31;514041;28;797;-46
2023/08/14 00:43:00;;;;;;;1.80;1.50;;;;;;;17.51;63.55;93932.19;513504;28;1675;-45
2023/08/14 00:43:16;;;;;;;2.00;1.73;;;;;;;17.57;63.72;93941.78;511978;28;838;-46
2023/08/14 00:43:31;;;;;;;2.30;2.10;;;;;;;17.56;63.76;93940.31;513635;28;891;-46
2023/08/14 00:43:46;;;;;;;2.77;2.20;;;;;;;17.56;63.96;93951.47;512695;28;1143;-46
2023/08/14 00:44:02;;;;;;;2.60;1.98;;;;;;;17.53;63.95;93935.88;513321;28;1280;-46
2023/08/14 00:44:17;;;;;;;2.07;1.87;;;;;;;17.55;63.88;93949.25;511704;28;1029;-46
2023/08/14 00:44:33;;;;;;;2.22;2.03;;;;;;;17.55;63.79;93943.66;511866;29;859;-46
2023/08/14 00:44:48;;;;;;;2.30;2.10;;;;;;;17.55;63.96;93941.63;511808;28;810;-46
2023/08/14 00:45:05;;;;;;;2.33;1.90;;;;;;;17.53;63.98;93940.72;513785;28;851;-47
2023/08/14 00:45:20;;;;;;;2.05;1.80;;;;;;;17.54;64.09;93945.00;513783;28;1080;-45
2023/08/14 00:45:36;;;;;;;2.07;1.87;;;;;;;17.54;63.97;93942.22;513984;28;848;-46
2023/08/14 00:45:53;;;;;;;2.20;2.00;;;;;;;17.54;63.89;93950.59;512918;28;1762;-46
2023/08/14 00:46:08;;;;;;;2.28;2.08;;;;;;;17.52;63.92;93948.34;513862;28;843;-47
2023/08/14 00:46:24;;;;;;;2.13;1.90;;;;;;;17.52;64.01;93953.22;511976;28;987;-46
2023/08/14 00:46:40;;;;;;;1.85;1.70;;;;;;;17.50;64.23;93953.78;511829;28;1140;-45
2023/08/14 00:46:55;;;;;;;2.25;2.05;;;;;;;17.51;64.10;93941.31;513759;28;985;-46
2023/08/14 00:47:11;;;;;;;2.30;2.10;;;;;;;17.47;64.25;93943.03;513858;28;781;-45
2023/08/14 00:47:26;;;;;;;2.35;2.15;;;;;;;17.50;64.12;93942.63;513731;28;858;-46
2023/08/14 00:47:44;;;;;;;3.30;2.10;;;;;;;17.50;64.25;93955.84;513740;28;1167;-47
2023/08/14 00:47:59;;;;;;;3.40;2.00;;;;;;;17.49;64.19;93951.56;513702;28;1004;-45
2023/08/14 00:48:14;;;;;;;3.10;1.80;;;;;;;17.48;64.36;93950.09;513731;28;1198;-47
2023/08/14 00:48:30;;;;;;;2.63;1.67;;;;;;;17.48;64.36;93950.81;511512;29;1716;-46
2023/08/14 00:48:46;;;;;;;2.25;1.77;;;;;;;17.48;64.38;93948.03;511750;29;959;-46
2023/08/14 00:49:01;;;;;;;5.67;2.30;;;;;;;17.47;64.26;93948.63;511777;29;849;-46
2023/08/14 00:49:16;;;;;;;4.85;2.30;;;;;;;17.47;64.22;93945.81;511781;29;858;-46
2023/08/14 00:49:32;;;;;;;2.27;2.07;;;;;;;17.47;64.16;93931.88;512290;28;877;-46
2023/08/14 00:49:48;;;;;;;2.20;2.00;;;;;;;17.47;64.30;93948.63;511730;29;1577;-47
2023/08/14 00:50:04;;;;;;;2.10;1.90;;;;;;;17.47;64.45;93940.97;511797;29;904;-46
2023/08/14 00:50:20;;;;;;;2.42;2.10;;;;;;;17.46;64.49;93947.88;512340;28;918;-46
2023/08/14 00:50:36;;;;;;;2.00;1.80;;;;;;;17.46;64.47;93945.06;513845;28;864;-46
2023/08/14 00:50:53;;;;;;;2.00;1.80;;;;;;;17.45;64.38;93949.91;513771;28;805;-47
2023/08/14 00:51:08;;;;;;;2.13;1.92;;;;;;;17.45;64.55;93947.13;511688;29;874;-47
2023/08/14 00:51:24;;;;;;;2.10;1.97;;;;;;;17.42;64.55;93939.94;511585;29;1078;-46
2023/08/14 00:51:40;;;;;;;2.47;2.20;;;;;;;17.45;64.73;93947.13;511675;28;1922;-45
2023/08/14 00:51:55;;;;;;;2.80;2.23;;;;;;;17.47;64.75;93949.34;512643;28;956;-47
2023/08/14 00:52:10;;;;;;;2.40;2.10;;;;;;;17.46;64.78;93950.66;513802;28;872;-45
2023/08/14 00:52:27;;;;;;;2.03;1.83;;;;;;;17.43;64.80;93943.47;513783;28;852;-48
2023/08/14 00:52:47;;;;;;;1.70;1.60;;;;;;;17.44;64.67;93944.94;511717;28;1155;-46
2023/08/14 00:53:03;;;;;;;1.77;1.67;;;;;;;17.43;64.56;93944.19;512821;28;806;-47
2023/08/14 00:53:18;;;;;;;1.90;1.80;;;;;;;17.40;64.57;93945.38;511736;28;829;-46
2023/08/14 00:53:34;;;;;;;2.15;2.00;;;;;;;17.42;64.48;93947.56;509871;29;1123;-46
2023/08/14 00:53:50;;;;;;;2.35;2.15;;;;;;;17.42;64.37;93947.56;509620;29;1805;-46
2023/08/14 00:54:06;;;;;;;2.03;1.90;;;;;;;17.40;64.49;93942.56;507716;29;894;-46
2023/08/14 00:54:21;;;;;;;2.13;1.92;;;;;;;17.41;64.53;93946.81;507826;29;1183;-45
2023/08/14 00:54:36;;;;;;;1.97;1.87;;;;;;;17.41;64.54;93941.25;508843;29;880;-45
2023/08/14 00:54:52;;;;;;;2.13;1.98;;;;;;;17.40;64.73;93948.16;510127;28;868;-46
2023/08/14 00:55:11;;;;;;;2.10;1.83;;;;;;;17.42;64.79;93947.56;510294;29;801;-46
2023/08/14 00:55:27;;;;;;;2.47;1.77;;;;;;;17.39;64.57;93943.13;511722;29;782;-47
2023/08/14 00:55:42;;;;;;;2.42;2.00;;;;;;;17.40;64.86;93947.41;512077;28;1219;-45
2023/08/14 00:55:59;;;;;;;2.47;1.90;;;;;;;17.38;64.94;93941.69;513761;28;809;-46
2023/08/14 00:56:15;;;;;;;3.35;1.90;;;;;;;17.40;64.75;93947.41;513951;28;884;-46
2023/08/14 00:56:31;;;;;;;3.47;1.80;;;;;;;17.38;64.76;93941.69;513934;28;805;-46
2023/08/14 00:56:46;;;;;;;1.92;1.70;;;;;;;17.38;64.87;93942.41;513984;28;833;-45
2023/08/14 00:57:02;;;;;;;3.27;1.77;;;;;;;17.37;64.84;93943.72;513698;28;867;-47
2023/08/14 00:57:17;;;;;;;3.50;1.83;;;;;;;17.38;64.77;93944.47;513591;28;1158;-46
2023/08/14 00:57:32;;;;;;;2.00;1.80;;;;;;;17.38;64.69;93944.47;513809;28;853;-46
2023/08/14 00:57:50;;;;;;;2.23;2.03;;;;;;;17.37;64.63;93948.56;513782;28;830;-45
2023/08/14 00:58:06;;;;;;;2.25;2.05;;;;;;;17.37;64.77;93946.50;512977;28;1680;-46
2023/08/14 00:58:22;;;;;;;4.10;2.07;;;;;;;17.37;64.63;93948.56;512792;28;806;-45
2023/08/14 00:58:37;;;;;;;4.35;1.85;;;;;;;17.37;64.95;93949.31;512827;28;819;-46
2023/08/14 00:58:53;;;;;;;2.20;1.88;;;;;;;17.37;64.73;93945.78;511405;28;1227;-46
2023/08/14 00:59:09;;;;;;;1.87;1.77;;;;;;;17.36;64.90;93939.47;511799;28;840;-46
2023/08/14 00:59:24;;;;;;;2.47;1.95;;;;;;;17.34;64.77;93947.69;511726;28;918;-45
2023/08/14 00:59:40;;;;;;;2.90;2.15;;;;;;;17.34;64.50;93947.69;511785;29;896;-46
2023/08/14 00:59:56;;;;;;;2.37;2.17;;;;;;;17.33;64.80;93940.63;512111;28;971;-46
2023/08/14 01:00:12;;;;;;;2.28;2.08;;;;;;;17.33;64.75;93942.69;511769;28;857;-46
2023/08/14 01:00:28;;;;;;;2.23;2.00;;;;;;;17.32;64.69;93941.97;510163;28;1136;-45
2023/08/14 01:00:44;;;;;;;2.55;1.92;;;;;;;17.32;64.70;93941.97;511834;28;1814;-45
2023/08/14 01:01:00;;;;;;;2.27;1.90;;;;;;;17.31;64.71;93940.47;511557;28;977;-45
2023/08/14 01:01:15;;;;;;;2.13;1.92;;;;;;;17.31;64.87;93940.47;511758;29;798;-46
2023/08/14 01:01:30;;;;;;;1.93;1.83;;;;;;;17.30;64.62;93944.56;509854;29;833;-45
2023/08/14 01:01:46;;;;;;;2.17;1.98;;;;;;;17.30;64.67;93946.66;509281;29;837;-46
2023/08/14 01:02:01;;;;;;;2.23;2.03;;;;;;;17.29;64.71;93943.09;509338;29;1411;-45
2023/08/14 01:02:16;;;;;;;2.00;1.90;;;;;;;17.27;64.58;93945.75;510255;29;850;-46
2023/08/14 01:02:33;;;;;;;2.88;1.77;;;;;;;17.27;64.66;93942.22;511818;28;845;-47
2023/08/14 01:02:49;;;;;;;2.95;1.75;;;;;;;17.25;64.66;93940.00;511779;28;841;-46
2023/08/14 01:03:06;;;;;;;1.80;1.70;;;;;;;17.16;64.54;93926.00;511796;29;852;-46
2023/08/14 01:03:23;;;;;;;1.88;1.77;;;;;;;17.24;64.57;93941.31;511993;28;1477;-46
2023/08/14 01:03:39;;;;;;;2.10;1.90;;;;;;;17.24;64.51;93940.56;513379;28;1007;-46
2023/08/14 01:03:54;;;;;;;2.80;1.92;;;;;;;17.24;64.69;93943.38;513733;28;788;-45
2023/08/14 01:04:09;;;;;;;2.40;1.70;;;;;;;17.23;64.40;93944.69;513754;28;952;-45
2023/08/14 01:04:25;;;;;;;2.23;1.90;;;;;;;17.23;64.36;93945.44;513854;28;1622;-47
2023/08/14 01:04:40;;;;;;;2.20;2.00;;;;;;;17.22;64.44;93940.41;513939;28;892;-46
2023/08/14 01:04:55;;;;;;;2.20;2.00;;;;;;;17.21;64.52;93942.50;513774;28;1198;-46
2023/08/14 01:05:11;;;;;;;2.30;2.07;;;;;;;17.21;64.44;93944.53;513997;28;912;-47
2023/08/14 01:05:26;;;;;;;2.72;2.00;;;;;;;17.21;64.69;93933.38;513892;28;892;-45
2023/08/14 01:05:41;;;;;;;2.17;1.90;;;;;;;17.20;64.58;93943.06;513948;28;837;-46
2023/08/14 01:05:57;;;;;;;2.37;2.10;;;;;;;17.20;64.49;93937.47;513676;28;1056;-46
2023/08/14 01:06:12;;;;;;;3.10;2.40;;;;;;;17.18;64.42;93940.84;512627;28;1699;-46
2023/08/14 01:06:28;;;;;;;2.63;2.30;;;;;;;17.16;64.48;93943.50;513144;28;1226;-46
2023/08/14 01:06:43;;;;;;;2.40;2.20;;;;;;;17.16;64.62;93937.16;513957;28;923;-45
2023/08/14 01:06:58;;;;;;;2.17;2.00;;;;;;;17.15;64.67;93944.06;513841;28;928;-47
2023/08/14 01:07:14;;;;;;;1.90;1.80;;;;;;;17.13;64.70;93941.13;513901;28;1108;-46
2023/08/14 01:07:29;;;;;;;1.80;1.70;;;;;;;17.12;64.55;93940.41;513933;28;871;-46
2023/08/14 01:07:45;;;;;;;1.92;1.73;;;;;;;17.12;64.64;93934.81;513826;28;987;-46
2023/08/14 01:08:00;;;;;;;2.43;1.80;;;;;;;17.10;64.75;93937.44;513876;28;924;-46
2023/08/14 01:08:15;;;;;;;2.58;2.00;;;;;;;17.10;64.76;93931.88;512622;28;939;-46
2023/08/14 01:08:31;;;;;;;2.13;1.97;;;;;;;17.10;64.92;93934.66;512054;28;838;-45
2023/08/14 01:08:47;;;;;;;2.63;2.00;;;;;;;17.10;64.78;93939.50;512272;28;1744;-47
2023/08/14 01:09:02;;;;;;;3.00;2.20;;;;;;;17.08;64.79;93937.28;513700;28;892;-45
2023/08/14 01:09:18;;;;;;;2.15;1.95;;;;;;;17.07;65.11;93933.00;513761;28;1116;-45
2023/08/14 01:09:34;;;;;;;1.67;1.58;;;;;;;17.07;65.11;93932.28;513955;28;910;-45
2023/08/14 01:09:50;;;;;;;2.00;1.90;;;;;;;17.08;65.12;93936.56;514782;28;818;-47
2023/08/14 01:10:07;;;;;;;2.33;2.13;;;;;;;17.08;65.25;93936.56;515782;28;858;-46
2023/08/14 01:10:23;;;;;;;2.47;2.28;;;;;;;17.08;65.12;93942.13;515818;28;891;-46
2023/08/14 01:10:56;;;;;;;2.35;2.15;;;;;;;17.07;65.38;93940.66;515655;28;1170;-45
2023/08/14 01:11:38;;;;;;;2.20;2.00;;;;;;;17.06;65.41;93939.19;513703;28;955;-47
2023/08/14 01:12:22;;;;;;;2.40;2.20;;;;;;;17.05;65.34;93932.13;511935;28;1127;-45
2023/08/14 01:12:56;;;;;;;2.00;1.80;;;;;;;17.03;65.21;93940.34;509534;29;1240;-44
2023/08/14 01:13:25;;;;;;;2.40;2.13;;;;;;;17.02;65.43;93941.66;513793;28;1670;-45
2023/08/14 01:13:53;;;;;;;2.05;1.95;;;;;;;17.00;65.41;93936.66;515595;28;1114;-45
2023/08/14 01:14:30;;;;;;;2.40;2.20;;;;;;;17.01;65.59;93940.91;513724;28;920;-47
2023/08/14 01:14:47;;;;;;;2.00;1.73;;;;;;;17.00;65.64;93938.72;513772;28;888;-45
2023/08/14 01:15:08;;;;;;;2.17;1.98;;;;;;;17.01;65.49;93934.59;514960;28;1003;-45
2023/08/14 01:15:33;;;;;;;2.30;2.10;;;;;;;16.99;65.45;93937.22;513838;28;1154;-45
2023/08/14 01:15:53;;;;;;;2.30;2.10;;;;;;;16.99;65.45;93942.81;511927;28;830;-45
2023/08/14 01:16:17;;;;;;;2.40;2.20;;;;;;;16.99;65.48;93937.22;513728;28;827;-46
2023/08/14 01:16:38;;;;;;;2.17;2.00;;;;;;;16.98;65.64;93932.97;513893;28;836;-46
2023/08/14 01:16:57;;;;;;;2.00;1.90;;;;;;;16.97;65.29;93932.25;511710;29;865;-45
2023/08/14 01:17:14;;;;;;;2.00;1.90;;;;;;;16.96;65.12;93938.38;509819;29;1119;-46
2023/08/14 01:17:32;;;;;;;2.33;2.13;;;;;;;16.94;65.19;93935.44;509723;29;995;-47
2023/08/14 01:17:50;;;;;;;2.20;2.00;;;;;;;16.95;65.23;93939.72;507859;29;864;-46
2023/08/14 01:18:06;;;;;;;2.00;1.80;;;;;;;16.96;65.32;93935.59;506400;29;1778;-46
2023/08/14 01:18:24;;;;;;;1.77;1.67;;;;;;;16.95;65.47;93937.66;506125;29;1116;-45
2023/08/14 01:18:40;;;;;;;1.95;1.85;;;;;;;16.94;65.44;93938.22;507046;29;975;-47
2023/08/14 01:18:58;;;;;;;2.10;2.00;;;;;;;16.95;65.48;93945.28;508904;29;1245;-46
2023/08/14 01:19:22;;;;;;;2.30;2.10;;;;;;;16.93;65.68;93940.28;507366;29;1230;-45
2023/08/14 01:19:40;;;;;;;2.40;2.20;;;;;;;16.93;65.63;93939.56;506434;29;853;-46